createdAt,value
2023-04-20T00:00:37.543Z,99.90
2023-04-20T00:02:11.080Z,99.90
2023-04-20T00:03:44.565Z,99.90
2023-04-20T00:05:16.840Z,99.90
2023-04-20T00:06:51.770Z,99.90
2023-04-20T00:08:26.208Z,99.90
2023-04-20T00:09:59.153Z,99.90
2023-04-20T00:11:32.212Z,99.90
2023-04-20T00:13:05.150Z,99.90
2023-04-20T00:14:38.207Z,99.90
2023-04-20T00:16:10.346Z,99.90
2023-04-20T00:17:43.537Z,99.90
2023-04-20T00:19:16.938Z,99.90
2023-04-20T00:20:50.186Z,99.90
2023-04-20T00:22:23.128Z,99.90
2023-04-20T00:23:56.415Z,99.90
2023-04-20T00:25:30.537Z,99.90
2023-04-20T00:27:03.611Z,99.90
2023-04-20T00:28:36.588Z,99.90
2023-04-20T00:30:11.069Z,99.90
2023-04-20T00:31:44.091Z,99.90
2023-04-20T00:33:17.169Z,99.90
2023-04-20T00:34:50.244Z,99.90
2023-04-20T00:36:23.202Z,99.90
2023-04-20T00:37:55.311Z,99.90
2023-04-20T00:39:29.640Z,99.90
2023-04-20T00:41:02.669Z,99.90
2023-04-20T00:42:35.717Z,99.90
2023-04-20T00:44:11.422Z,99.90
2023-04-20T00:45:44.352Z,99.90
2023-04-20T00:47:17.455Z,99.90
2023-04-20T00:48:52.122Z,99.90
2023-04-20T00:50:25.272Z,99.90
2023-04-20T00:51:59.344Z,99.90
2023-04-20T00:53:32.436Z,99.90
2023-04-20T00:55:07.450Z,99.90
2023-04-20T00:56:40.412Z,99.90
2023-04-20T00:58:13.770Z,99.90
2023-04-20T00:59:46.775Z,99.90
2023-04-20T01:01:19.844Z,99.90
2023-04-20T01:02:52.879Z,99.90
2023-04-20T01:04:26.180Z,99.90
2023-04-20T01:05:59.332Z,99.90
2023-04-20T01:07:32.622Z,99.90
2023-04-20T01:09:05.806Z,99.90
2023-04-20T01:10:40.131Z,99.90
2023-04-20T01:12:13.155Z,99.90
2023-04-20T01:13:46.180Z,99.90
2023-04-20T01:15:19.096Z,99.90
2023-04-20T01:16:52.012Z,99.90
2023-04-20T01:18:23.902Z,99.90
2023-04-20T01:19:56.828Z,99.90
2023-04-20T01:21:28.815Z,99.90
2023-04-20T01:23:03.418Z,99.90
2023-04-20T01:24:36.410Z,99.90
2023-04-20T01:26:09.291Z,99.90
2023-04-20T01:27:42.297Z,99.90
2023-04-20T01:29:14.228Z,99.90
2023-04-20T01:30:47.238Z,99.90
2023-04-20T01:32:20.114Z,99.90
2023-04-20T01:33:52.237Z,99.90
2023-04-20T01:35:25.233Z,99.90
2023-04-20T01:36:57.264Z,99.90
2023-04-20T01:38:32.995Z,99.90
2023-04-20T01:40:07.322Z,99.90
2023-04-20T01:41:40.497Z,99.90
2023-04-20T01:43:13.410Z,99.90
2023-04-20T01:44:46.307Z,99.90
2023-04-20T01:46:19.328Z,99.90
2023-04-20T01:47:52.288Z,99.90
2023-04-20T01:49:25.338Z,99.90
2023-04-20T01:50:58.473Z,99.90
2023-04-20T01:52:31.524Z,99.90
2023-04-20T01:54:05.859Z,99.90
2023-04-20T01:55:38.816Z,99.90
2023-04-20T01:57:10.685Z,99.90
2023-04-20T01:58:43.571Z,99.90
2023-04-20T02:00:16.404Z,99.90
2023-04-20T02:01:49.440Z,99.90
2023-04-20T02:03:22.627Z,99.90
2023-04-20T02:04:54.894Z,99.90
2023-04-20T02:06:27.903Z,99.90
2023-04-20T02:07:59.941Z,99.90
2023-04-20T02:09:34.179Z,99.90
2023-04-20T02:11:07.150Z,99.90
2023-04-20T02:12:40.138Z,99.90
2023-04-20T02:14:13.069Z,99.90
2023-04-20T02:15:46.054Z,99.90
2023-04-20T02:17:19.732Z,99.90
2023-04-20T02:18:52.714Z,99.90
2023-04-20T02:20:24.838Z,99.90
2023-04-20T02:21:57.776Z,99.90
2023-04-20T02:23:30.794Z,99.90
2023-04-20T02:25:06.572Z,99.90
2023-04-20T02:26:39.549Z,99.90
2023-04-20T02:28:12.711Z,99.90
2023-04-20T02:29:45.654Z,99.90
2023-04-20T02:31:18.781Z,99.90
2023-04-20T02:32:51.963Z,99.90
2023-04-20T02:34:25.391Z,99.90
2023-04-20T02:35:58.193Z,99.90
2023-04-20T02:37:31.636Z,99.90
2023-04-20T02:39:04.558Z,99.90
2023-04-20T02:40:38.957Z,99.90
2023-04-20T02:42:12.464Z,99.90
2023-04-20T02:43:45.416Z,99.90
2023-04-20T02:45:18.519Z,99.90
2023-04-20T02:46:50.520Z,99.90
2023-04-20T02:48:23.460Z,99.90
2023-04-20T02:49:56.652Z,99.90
2023-04-20T02:51:29.637Z,99.90
2023-04-20T02:53:02.682Z,99.90
2023-04-20T02:54:35.801Z,99.90
2023-04-20T02:56:10.835Z,99.90
2023-04-20T02:57:43.044Z,99.90
2023-04-20T02:59:16.324Z,99.90
2023-04-20T03:00:49.249Z,99.90
2023-04-20T03:02:22.516Z,99.90
2023-04-20T03:03:56.144Z,99.90
2023-04-20T03:05:29.213Z,99.90
2023-04-20T03:07:01.811Z,99.90
2023-04-20T03:08:34.740Z,99.90
2023-04-20T03:10:09.184Z,99.90
2023-04-20T03:11:42.659Z,99.90
2023-04-20T03:13:15.607Z,99.90
2023-04-20T03:14:48.584Z,99.90
2023-04-20T03:16:21.879Z,99.90
2023-04-20T03:17:55.083Z,99.90
2023-04-20T03:19:28.238Z,99.90
2023-04-20T03:21:01.468Z,99.90
2023-04-20T03:22:34.519Z,99.90
2023-04-20T03:24:07.946Z,99.90
2023-04-20T03:25:40.950Z,99.90
2023-04-20T03:27:15.473Z,99.90
2023-04-20T03:28:50.624Z,99.90
2023-04-20T03:30:23.567Z,99.90
2023-04-20T03:31:56.639Z,99.90
2023-04-20T03:33:28.754Z,99.90
2023-04-20T03:35:01.998Z,99.90
2023-04-20T03:36:35.074Z,99.90
2023-04-20T03:38:08.140Z,99.90
2023-04-20T03:39:41.328Z,99.90
2023-04-20T03:41:13.960Z,99.90
2023-04-20T03:42:48.290Z,99.90
2023-04-20T03:44:21.283Z,99.90
2023-04-20T03:45:54.332Z,99.90
2023-04-20T03:47:27.393Z,99.90
2023-04-20T03:49:00.536Z,99.90
2023-04-20T03:50:32.655Z,99.90
2023-04-20T03:52:06.094Z,99.90
2023-04-20T03:53:39.637Z,99.90
2023-04-20T03:55:12.755Z,99.90
2023-04-20T03:56:46.108Z,99.90
2023-04-20T03:58:20.982Z,99.90
2023-04-20T03:59:53.961Z,99.90
2023-04-20T04:01:26.947Z,99.90
2023-04-20T04:02:59.966Z,99.90
2023-04-20T04:04:33.437Z,99.90
2023-04-20T04:06:07.389Z,99.90
2023-04-20T04:07:40.491Z,99.90
2023-04-20T04:09:13.455Z,99.90
2023-04-20T04:10:46.468Z,99.90
2023-04-20T04:12:18.475Z,99.90
2023-04-20T04:13:52.762Z,99.90
2023-04-20T04:15:25.878Z,99.90
2023-04-20T04:16:58.006Z,99.90
2023-04-20T04:18:32.781Z,99.90
2023-04-20T04:20:08.128Z,99.90
2023-04-20T04:21:41.394Z,99.90
2023-04-20T04:23:14.340Z,99.90
2023-04-20T04:24:48.821Z,99.90
2023-04-20T04:26:24.993Z,99.90
2023-04-20T04:27:58.760Z,99.90
2023-04-20T04:29:35.688Z,99.90
2023-04-20T04:31:09.732Z,99.90
2023-04-20T04:32:44.699Z,99.90
2023-04-20T04:34:18.329Z,99.90
2023-04-20T04:35:51.266Z,99.90
2023-04-20T04:37:24.336Z,99.90
2023-04-20T04:38:57.297Z,99.90
2023-04-20T04:40:29.252Z,99.90
2023-04-20T04:42:04.338Z,99.90
2023-04-20T04:43:37.907Z,99.90
2023-04-20T04:45:13.639Z,99.90
2023-04-20T04:46:47.569Z,99.90
2023-04-20T04:48:19.809Z,99.90
2023-04-20T04:49:52.696Z,99.90
2023-04-20T04:51:25.628Z,99.90
2023-04-20T04:52:58.536Z,99.90
2023-04-20T04:54:31.557Z,99.90
2023-04-20T04:56:06.970Z,99.90
2023-04-20T04:57:40.065Z,99.90
2023-04-20T04:59:13.061Z,99.90
2023-04-20T05:00:48.081Z,99.90
2023-04-20T05:02:21.256Z,99.90
2023-04-20T05:03:54.460Z,99.90
2023-04-20T05:05:28.104Z,99.90
2023-04-20T05:07:00.822Z,99.90
2023-04-20T05:08:33.802Z,99.90
2023-04-20T05:10:08.436Z,99.90
2023-04-20T05:11:40.458Z,99.90
2023-04-20T05:13:13.350Z,99.90
2023-04-20T05:15:22.932Z,99.90
2023-04-20T05:16:57.210Z,99.90
2023-04-20T05:18:30.158Z,99.90
2023-04-20T05:20:06.197Z,99.90
2023-04-20T05:21:39.320Z,99.90
2023-04-20T05:23:12.295Z,99.90
2023-04-20T05:24:45.265Z,99.90
2023-04-20T05:26:18.488Z,99.90
2023-04-20T05:27:51.434Z,99.90
2023-04-20T05:29:24.883Z,99.90
2023-04-20T05:30:57.713Z,99.90
2023-04-20T05:32:32.222Z,99.90
2023-04-20T05:34:05.322Z,99.90
2023-04-20T05:35:40.343Z,99.90
2023-04-20T05:37:13.344Z,99.90
2023-04-20T05:38:46.562Z,99.90
2023-04-20T05:40:19.579Z,99.90
2023-04-20T05:41:52.553Z,99.90
2023-04-20T05:43:25.483Z,99.90
2023-04-20T05:44:58.389Z,99.90
2023-04-20T05:46:31.300Z,99.90
2023-04-20T05:48:05.919Z,99.90
2023-04-20T05:49:39.402Z,99.90
2023-04-20T05:51:12.201Z,99.90
2023-04-20T05:52:45.165Z,99.90
2023-04-20T05:54:18.183Z,99.90
2023-04-20T05:55:51.215Z,99.90
2023-04-20T05:57:24.554Z,99.90
2023-04-20T05:58:58.205Z,99.90
2023-04-20T06:00:31.447Z,99.90
2023-04-20T06:02:04.588Z,99.90
2023-04-20T06:03:38.983Z,99.90
2023-04-20T06:05:11.389Z,99.90
2023-04-20T06:06:44.474Z,99.90
2023-04-20T06:08:16.413Z,99.90
2023-04-20T06:09:49.434Z,99.90
2023-04-20T06:11:22.411Z,99.90
2023-04-20T06:12:55.463Z,99.90
2023-04-20T06:14:28.442Z,99.90
2023-04-20T06:16:01.464Z,99.90
2023-04-20T06:17:37.407Z,99.90
2023-04-20T06:19:11.780Z,99.90
2023-04-20T06:20:45.177Z,99.90
2023-04-20T06:22:18.589Z,99.90
2023-04-20T06:23:51.612Z,99.90
2023-04-20T06:25:25.487Z,99.90
2023-04-20T06:26:58.446Z,99.90
2023-04-20T06:28:31.592Z,99.90
2023-04-20T06:30:05.639Z,99.90
2023-04-20T06:31:38.748Z,99.90
2023-04-20T06:33:16.853Z,99.90
2023-04-20T06:34:52.478Z,99.90
2023-04-20T06:36:25.550Z,99.90
2023-04-20T06:37:58.605Z,99.90
2023-04-20T06:39:32.264Z,99.90
2023-04-20T06:41:05.290Z,99.90
2023-04-20T06:42:38.505Z,99.90
2023-04-20T06:44:11.566Z,99.90
2023-04-20T06:45:44.663Z,99.90
2023-04-20T06:47:17.716Z,99.90
2023-04-20T06:48:50.749Z,99.90
2023-04-20T06:50:25.461Z,99.90
2023-04-20T06:51:58.638Z,99.90
2023-04-20T06:53:32.061Z,99.90
2023-04-20T06:55:05.082Z,99.90
2023-04-20T06:56:37.984Z,99.90
2023-04-20T06:58:10.919Z,99.90
2023-04-20T06:59:43.842Z,99.90
2023-04-20T07:01:16.915Z,99.90
2023-04-20T07:02:51.692Z,99.90
2023-04-20T07:06:07.124Z,99.90
2023-04-20T07:07:40.321Z,99.90
2023-04-20T07:09:13.316Z,99.90
2023-04-20T07:10:46.297Z,99.90
2023-04-20T07:12:19.213Z,99.90
2023-04-20T07:13:52.176Z,99.90
2023-04-20T07:15:25.488Z,99.90
2023-04-20T07:16:58.472Z,99.90
2023-04-20T07:18:33.318Z,99.90
2023-04-20T07:20:09.292Z,99.90
2023-04-20T07:21:43.680Z,99.90
2023-04-20T07:23:16.755Z,99.90
2023-04-20T07:24:48.747Z,99.90
2023-04-20T07:26:21.704Z,99.90
2023-04-20T07:27:54.736Z,99.90
2023-04-20T07:29:27.739Z,99.90
2023-04-20T07:31:00.759Z,99.90
2023-04-20T07:32:33.789Z,99.90
2023-04-20T07:34:07.240Z,99.90
2023-04-20T07:35:40.097Z,99.90
2023-04-20T07:37:14.398Z,99.90
2023-04-20T07:38:47.387Z,99.90
2023-04-20T07:40:20.562Z,99.90
2023-04-20T07:41:53.647Z,99.90
2023-04-20T07:43:26.777Z,99.90
2023-04-20T07:44:59.818Z,99.90
2023-04-20T07:46:33.045Z,99.90
2023-04-20T07:48:06.470Z,99.90
2023-04-20T07:49:40.878Z,99.90
2023-04-20T07:51:13.698Z,99.90
2023-04-20T07:52:48.078Z,99.90
2023-04-20T07:54:21.295Z,99.90
2023-04-20T07:55:54.234Z,99.90
2023-04-20T07:57:27.659Z,99.90
2023-04-20T07:59:00.407Z,99.90
2023-04-20T08:00:33.455Z,99.70
2023-04-20T08:02:06.539Z,99.90
2023-04-20T08:03:39.815Z,99.60
2023-04-20T08:05:12.984Z,99.90
2023-04-20T08:06:46.254Z,99.90
2023-04-20T08:08:20.728Z,99.90
2023-04-20T08:09:53.791Z,99.90
2023-04-20T08:11:27.001Z,99.60
2023-04-20T08:13:00.283Z,99.30
2023-04-20T08:14:33.669Z,99.30
2023-04-20T08:16:07.489Z,99.00
2023-04-20T08:17:41.870Z,99.00
2023-04-20T08:20:53.350Z,98.70
2023-04-20T08:22:29.874Z,98.80
2023-04-20T08:24:04.702Z,98.90
2023-04-20T08:25:40.151Z,99.00
2023-04-20T08:27:13.382Z,99.00
2023-04-20T08:28:46.752Z,98.70
2023-04-20T08:30:19.608Z,98.30
2023-04-20T08:31:52.984Z,98.10
2023-04-20T08:33:26.513Z,98.00
2023-04-20T08:34:59.363Z,97.40
2023-04-20T08:36:32.744Z,97.10
2023-04-20T08:38:05.747Z,97.30
2023-04-20T08:39:40.136Z,96.90
2023-04-20T08:41:14.982Z,96.60
2023-04-20T08:42:48.160Z,96.40
2023-04-20T08:44:21.462Z,96.30
2023-04-20T08:45:58.054Z,96.20
2023-04-20T08:47:32.490Z,95.70
2023-04-20T08:49:05.860Z,95.30
2023-04-20T08:50:41.846Z,95.50
2023-04-20T08:52:15.084Z,95.00
2023-04-20T08:53:48.259Z,94.80
2023-04-20T08:55:22.769Z,94.90
2023-04-20T08:56:56.810Z,94.90
2023-04-20T08:58:32.528Z,93.90
2023-04-20T09:00:12.108Z,93.40
2023-04-20T09:01:46.820Z,93.70
2023-04-20T09:03:32.060Z,93.40
2023-04-20T09:05:08.654Z,93.20
2023-04-20T09:06:45.199Z,93.20
2023-04-20T09:08:18.358Z,93.10
2023-04-20T09:09:58.343Z,93.00
2023-04-20T09:11:32.813Z,92.90
2023-04-20T09:13:06.391Z,92.50
2023-04-20T09:14:44.348Z,92.50
2023-04-20T09:16:17.475Z,92.70
2023-04-20T09:17:50.606Z,92.80
2023-04-20T09:19:24.945Z,92.40
2023-04-20T09:20:58.004Z,91.80
2023-04-20T09:22:32.257Z,91.90
2023-04-20T09:24:07.558Z,91.60
2023-04-20T09:25:41.114Z,91.60
2023-04-20T09:27:19.350Z,91.60
2023-04-20T09:28:52.419Z,91.90
2023-04-20T09:30:25.638Z,91.90
2023-04-20T09:31:58.899Z,91.90
2023-04-20T09:33:32.480Z,92.20
2023-04-20T09:35:06.794Z,92.20
2023-04-20T09:36:40.790Z,92.10
2023-04-20T09:38:17.461Z,92.00
2023-04-20T09:39:50.959Z,91.90
2023-04-20T09:41:23.981Z,91.50
2023-04-20T09:43:04.126Z,91.60
2023-04-20T09:44:39.921Z,91.70
2023-04-20T09:46:12.938Z,91.80
2023-04-20T09:47:47.524Z,92.00
2023-04-20T09:49:21.314Z,92.30
2023-04-20T09:50:55.062Z,92.10
2023-04-20T09:52:28.564Z,92.20
2023-04-20T09:54:01.999Z,92.10
2023-04-20T09:55:35.132Z,92.10
2023-04-20T09:57:08.345Z,92.30
2023-04-20T09:58:43.733Z,92.50
2023-04-20T10:00:17.977Z,92.40
2023-04-20T10:01:51.165Z,92.00
2023-04-20T10:03:24.444Z,91.80
2023-04-20T10:04:58.063Z,91.50
2023-04-20T10:06:32.689Z,91.60
2023-04-20T10:08:05.787Z,91.80
2023-04-20T10:09:38.770Z,91.60
2023-04-20T10:11:12.057Z,91.50
2023-04-20T10:12:48.727Z,91.50
2023-04-20T10:14:24.592Z,91.20
2023-04-20T10:15:57.606Z,91.70
2023-04-20T10:17:31.205Z,91.30
2023-04-20T10:19:07.721Z,91.70
2023-04-20T10:20:41.926Z,91.60
2023-04-20T10:22:29.182Z,91.60
2023-04-20T10:24:03.184Z,91.30
2023-04-20T10:25:36.165Z,91.50
2023-04-20T10:27:19.233Z,91.70
2023-04-20T10:28:52.205Z,91.50
2023-04-20T10:30:28.163Z,92.00
2023-04-20T10:32:01.240Z,91.80
2023-04-20T10:33:34.213Z,92.30
2023-04-20T10:35:08.828Z,92.40
2023-04-20T10:36:42.736Z,92.30
2023-04-20T10:38:14.825Z,92.40
2023-04-20T10:39:48.546Z,92.60
2023-04-20T10:41:22.245Z,92.70
2023-04-20T10:42:55.336Z,92.80
2023-04-20T10:44:28.405Z,92.80
2023-04-20T10:46:02.825Z,92.60
2023-04-20T10:47:37.689Z,92.70
2023-04-20T10:49:10.636Z,92.90
2023-04-20T10:50:43.640Z,93.20
2023-04-20T10:52:16.546Z,93.60
2023-04-20T10:54:05.006Z,93.90
2023-04-20T10:55:38.159Z,93.70
2023-04-20T10:57:17.416Z,93.80
2023-04-20T10:58:50.592Z,93.60
2023-04-20T11:00:25.788Z,93.40
2023-04-20T11:02:01.389Z,93.30
2023-04-20T11:03:35.639Z,93.20
2023-04-20T11:05:12.775Z,93.00
2023-04-20T11:06:48.173Z,92.90
2023-04-20T11:08:21.344Z,92.90
2023-04-20T11:09:56.431Z,93.00
2023-04-20T11:11:29.646Z,92.90
2023-04-20T11:13:02.673Z,92.70
2023-04-20T11:14:38.336Z,92.70
2023-04-20T11:16:13.325Z,92.50
2023-04-20T11:17:47.818Z,92.60
2023-04-20T11:19:25.842Z,92.50
2023-04-20T11:20:58.850Z,92.20
2023-04-20T11:22:32.535Z,92.00
2023-04-20T11:24:07.202Z,91.80
2023-04-20T11:25:50.314Z,91.40
2023-04-20T11:27:23.598Z,91.50
2023-04-20T11:28:56.722Z,91.40
2023-04-20T11:30:39.686Z,91.60
2023-04-20T11:32:13.074Z,91.50
2023-04-20T11:33:47.957Z,91.70
2023-04-20T11:35:21.106Z,91.90
2023-04-20T11:36:56.643Z,92.10
2023-04-20T11:38:31.413Z,92.30
2023-04-20T11:40:09.521Z,92.30
2023-04-20T11:41:42.923Z,92.30
2023-04-20T11:43:16.751Z,91.80
2023-04-20T11:44:49.763Z,91.80
2023-04-20T11:46:23.230Z,92.00
2023-04-20T11:47:56.542Z,92.10
2023-04-20T11:49:30.953Z,92.20
2023-04-20T11:51:04.466Z,92.00
2023-04-20T11:52:37.543Z,92.40
2023-04-20T11:54:10.679Z,92.70
2023-04-20T11:55:43.754Z,92.80
2023-04-20T11:57:17.229Z,93.30
2023-04-20T11:58:50.914Z,93.80
2023-04-20T12:00:24.446Z,94.10
2023-04-20T12:01:57.564Z,94.30
2023-04-20T12:03:30.868Z,94.30
2023-04-20T12:05:05.607Z,94.40
2023-04-20T12:06:38.893Z,94.80
2023-04-20T12:08:11.990Z,95.00
2023-04-20T12:09:45.399Z,95.20
2023-04-20T12:11:18.259Z,95.10
2023-04-20T12:12:51.397Z,95.40
2023-04-20T12:14:24.409Z,95.50
2023-04-20T12:15:57.509Z,95.40
2023-04-20T12:17:30.438Z,95.30
2023-04-20T12:19:03.420Z,95.40
2023-04-20T12:20:38.073Z,95.50
2023-04-20T12:22:11.110Z,95.70
2023-04-20T12:23:44.837Z,95.80
2023-04-20T12:25:17.868Z,95.80
2023-04-20T12:26:50.931Z,95.70
2023-04-20T12:28:23.960Z,95.70
2023-04-20T12:29:57.081Z,95.70
2023-04-20T12:31:30.154Z,95.80
2023-04-20T12:33:03.790Z,95.90
2023-04-20T12:34:36.767Z,96.10
2023-04-20T12:36:11.330Z,96.20
2023-04-20T12:37:44.393Z,96.20
2023-04-20T12:39:17.429Z,96.30
2023-04-20T12:40:50.714Z,96.40
2023-04-20T12:42:23.559Z,96.20
2023-04-20T12:43:56.562Z,96.10
2023-04-20T12:45:29.806Z,96.00
2023-04-20T12:47:02.937Z,96.10
2023-04-20T12:48:36.112Z,96.30
2023-04-20T12:50:09.816Z,96.50
2023-04-20T12:51:44.347Z,96.80
2023-04-20T12:53:17.348Z,97.00
2023-04-20T12:54:50.557Z,97.20
2023-04-20T12:56:23.605Z,97.30
2023-04-20T12:57:56.764Z,97.60
2023-04-20T12:59:29.860Z,97.70
2023-04-20T13:01:02.940Z,97.90
2023-04-20T13:02:36.159Z,97.90
2023-04-20T13:04:09.291Z,98.00
2023-04-20T13:05:44.345Z,97.90
2023-04-20T13:07:18.774Z,98.00
2023-04-20T13:08:51.987Z,98.30
2023-04-20T13:10:25.283Z,98.10
2023-04-20T13:11:59.029Z,98.10
2023-04-20T13:13:31.981Z,98.00
2023-04-20T13:15:08.205Z,97.90
2023-04-20T13:16:41.169Z,97.90
2023-04-20T13:18:15.402Z,98.00
2023-04-20T13:19:49.314Z,98.20
2023-04-20T13:21:22.284Z,97.90
2023-04-20T13:22:58.511Z,97.70
2023-04-20T13:24:31.733Z,97.80
2023-04-20T13:26:04.875Z,97.70
2023-04-20T13:27:38.041Z,97.80
2023-04-20T13:29:11.151Z,97.80
2023-04-20T13:30:44.319Z,97.90
2023-04-20T13:32:17.198Z,97.90
2023-04-20T13:33:54.342Z,97.70
2023-04-20T13:35:27.722Z,97.90
2023-04-20T13:37:00.524Z,97.70
2023-04-20T13:38:34.916Z,97.50
2023-04-20T13:40:09.938Z,97.00
2023-04-20T13:41:43.036Z,96.90
2023-04-20T13:43:16.059Z,96.40
2023-04-20T13:44:49.044Z,96.10
2023-04-20T13:46:21.993Z,96.30
2023-04-20T13:47:55.190Z,96.50
2023-04-20T13:49:28.258Z,96.80
2023-04-20T13:51:01.348Z,96.80
2023-04-20T13:52:34.476Z,96.90
2023-04-20T13:54:09.127Z,97.00
2023-04-20T13:55:42.163Z,97.30
2023-04-20T13:57:15.214Z,97.30
2023-04-20T13:58:48.280Z,97.40
2023-04-20T14:00:23.499Z,97.40
2023-04-20T14:01:56.499Z,97.40
2023-04-20T14:03:29.730Z,97.20
2023-04-20T14:05:03.954Z,97.20
2023-04-20T14:06:37.385Z,97.00
2023-04-20T14:08:10.336Z,96.90
2023-04-20T14:09:45.195Z,96.70
2023-04-20T14:11:18.164Z,96.80
2023-04-20T14:12:51.567Z,97.00
2023-04-20T14:14:24.700Z,97.20
2023-04-20T14:15:58.597Z,97.00
2023-04-20T14:17:31.823Z,97.00
2023-04-20T14:19:04.694Z,96.70
2023-04-20T14:20:37.612Z,96.50
2023-04-20T14:22:10.693Z,96.60
2023-04-20T14:23:43.949Z,96.60
2023-04-20T14:25:18.386Z,96.20
2023-04-20T14:26:52.107Z,95.90
2023-04-20T14:28:25.173Z,96.00
2023-04-20T14:29:58.329Z,95.80
2023-04-20T14:31:31.523Z,95.90
2023-04-20T14:33:05.464Z,96.00
2023-04-20T14:34:38.585Z,96.10
2023-04-20T14:36:11.631Z,96.20
2023-04-20T14:37:44.552Z,96.40
2023-04-20T14:39:17.515Z,96.60
2023-04-20T14:40:52.462Z,97.00
2023-04-20T14:42:25.468Z,97.40
2023-04-20T14:43:58.414Z,97.40
2023-04-20T14:45:31.397Z,97.50
2023-04-20T14:47:04.399Z,97.40
2023-04-20T14:48:38.178Z,97.30
2023-04-20T14:50:12.428Z,97.40
2023-04-20T14:51:45.408Z,97.40
2023-04-20T14:53:18.345Z,97.60
2023-04-20T14:54:51.436Z,97.80
2023-04-20T14:56:25.958Z,97.80
2023-04-20T14:57:59.006Z,97.90
2023-04-20T14:59:33.645Z,98.20
2023-04-20T15:01:07.026Z,98.40
2023-04-20T15:02:40.805Z,98.40
2023-04-20T15:04:13.933Z,98.40
2023-04-20T15:05:48.239Z,98.30
2023-04-20T15:07:21.196Z,98.20
2023-04-20T15:08:55.596Z,98.10
2023-04-20T15:10:28.552Z,98.00
2023-04-20T15:12:02.912Z,97.90
2023-04-20T15:13:36.188Z,97.90
2023-04-20T15:15:09.980Z,97.70
2023-04-20T15:16:43.096Z,97.70
2023-04-20T15:18:16.302Z,97.70
2023-04-20T15:19:49.217Z,97.80
2023-04-20T15:21:22.828Z,97.70
2023-04-20T15:22:55.781Z,97.60
2023-04-20T15:24:28.658Z,97.30
2023-04-20T15:26:01.673Z,97.10
2023-04-20T15:27:36.250Z,97.00
2023-04-20T15:29:09.251Z,97.30
2023-04-20T15:30:42.636Z,97.50
2023-04-20T15:32:15.427Z,97.60
2023-04-20T15:33:48.919Z,97.80
2023-04-20T15:35:21.854Z,98.00
2023-04-20T15:36:54.803Z,98.30
2023-04-20T15:38:27.769Z,98.50
2023-04-20T15:40:00.872Z,98.60
2023-04-20T15:41:33.938Z,98.80
2023-04-20T15:43:08.223Z,98.90
2023-04-20T15:44:41.650Z,98.90
2023-04-20T15:46:14.795Z,98.90
2023-04-20T15:47:48.143Z,98.90
2023-04-20T15:49:21.043Z,98.90
2023-04-20T15:50:54.067Z,98.80
2023-04-20T15:52:26.948Z,98.70
2023-04-20T15:54:00.106Z,98.90
2023-04-20T15:55:35.629Z,98.80
2023-04-20T15:57:08.606Z,98.80
2023-04-20T15:58:42.868Z,98.80
2023-04-20T16:00:15.699Z,98.70
2023-04-20T16:01:48.826Z,98.50
2023-04-20T16:03:21.986Z,98.40
2023-04-20T16:04:55.110Z,98.50
2023-04-20T16:06:28.312Z,98.70
2023-04-20T16:08:01.329Z,98.50
2023-04-20T16:09:34.211Z,98.20
2023-04-20T16:11:07.438Z,98.00
2023-04-20T16:12:40.459Z,98.30
2023-04-20T16:14:14.817Z,98.30
2023-04-20T16:15:47.795Z,98.60
2023-04-20T16:17:21.105Z,98.20
2023-04-20T16:18:55.082Z,98.30
2023-04-20T16:20:28.047Z,98.50
2023-04-20T16:22:00.929Z,98.60
2023-04-20T16:23:33.914Z,98.90
2023-04-20T16:25:09.166Z,99.20
2023-04-20T16:26:42.235Z,99.40
2023-04-20T16:28:15.159Z,99.60
2023-04-20T16:29:49.544Z,99.70
2023-04-20T16:31:22.532Z,99.80
2023-04-20T16:32:55.596Z,99.70
2023-04-20T16:34:30.428Z,99.90
2023-04-20T16:36:03.428Z,99.90
2023-04-20T16:37:36.532Z,99.90
2023-04-20T16:39:10.160Z,99.90
2023-04-20T16:40:43.630Z,99.90
2023-04-20T16:42:17.102Z,99.90
2023-04-20T16:43:50.010Z,99.90
2023-04-20T16:45:24.494Z,99.90
2023-04-20T16:46:57.591Z,99.90
2023-04-20T16:48:31.310Z,99.90
2023-04-20T16:50:07.068Z,99.90
2023-04-20T16:51:40.044Z,99.90
2023-04-20T16:53:12.951Z,99.90
2023-04-20T16:54:45.986Z,99.90
2023-04-20T16:56:19.187Z,99.90
2023-04-20T16:57:52.148Z,99.90
2023-04-20T16:59:25.135Z,99.80
2023-04-20T17:00:59.579Z,99.90
2023-04-20T17:02:34.291Z,99.60
2023-04-20T17:04:07.622Z,99.70
2023-04-20T17:05:42.172Z,99.70
2023-04-20T17:07:15.744Z,99.70
2023-04-20T17:08:49.316Z,99.80
2023-04-20T17:10:23.164Z,99.90
2023-04-20T17:11:56.512Z,99.90
2023-04-20T17:13:29.276Z,99.90
2023-04-20T17:15:02.619Z,99.90
2023-04-20T17:16:37.081Z,99.90
2023-04-20T17:18:10.132Z,99.90
2023-04-20T17:19:43.126Z,99.90
2023-04-20T17:21:16.174Z,99.90
2023-04-20T17:22:49.113Z,99.90
2023-04-20T17:24:22.008Z,99.90
2023-04-20T17:25:55.124Z,99.90
2023-04-20T17:27:28.165Z,99.90
2023-04-20T17:29:01.200Z,99.90
2023-04-20T17:30:34.291Z,99.90
2023-04-20T17:32:09.077Z,99.90
2023-04-20T17:33:43.356Z,99.90
2023-04-20T17:35:16.308Z,99.90
2023-04-20T17:36:49.264Z,99.90
2023-04-20T17:38:22.230Z,99.90
2023-04-20T17:39:55.355Z,99.90
2023-04-20T17:41:28.297Z,99.90
2023-04-20T17:43:01.482Z,99.90
2023-04-20T17:44:34.539Z,99.90
2023-04-20T17:46:07.994Z,99.90
2023-04-20T17:47:42.635Z,99.90
2023-04-20T17:49:15.836Z,99.90
2023-04-20T17:50:49.663Z,99.90
2023-04-20T17:52:22.791Z,99.90
2023-04-20T17:53:55.772Z,99.90
2023-04-20T17:55:28.776Z,99.90
2023-04-20T17:57:01.790Z,99.90
2023-04-20T17:58:34.943Z,99.90
2023-04-20T18:00:11.557Z,99.90
2023-04-20T18:01:44.675Z,99.90
2023-04-20T18:03:20.056Z,99.90
2023-04-20T18:04:55.242Z,99.90
2023-04-20T18:06:29.971Z,99.90
2023-04-20T18:08:02.942Z,99.90
2023-04-20T18:09:35.900Z,99.90
2023-04-20T18:11:09.064Z,99.90
2023-04-20T18:12:41.957Z,99.90
2023-04-20T18:14:14.931Z,99.90
2023-04-20T18:15:47.838Z,99.90
2023-04-20T18:17:20.904Z,99.90
2023-04-20T18:18:55.221Z,99.90
2023-04-20T18:20:29.947Z,99.90
2023-04-20T18:22:04.293Z,99.90
2023-04-20T18:23:37.551Z,99.90
2023-04-20T18:25:11.061Z,99.90
2023-04-20T18:26:44.054Z,99.90
2023-04-20T18:28:16.970Z,99.90
2023-04-20T18:29:50.493Z,99.90
2023-04-20T18:31:23.491Z,99.90
2023-04-20T18:32:56.631Z,99.90
2023-04-20T18:34:32.064Z,99.90
2023-04-20T18:36:05.848Z,99.90
2023-04-20T18:37:39.044Z,99.90
2023-04-20T18:39:12.046Z,99.90
2023-04-20T18:40:44.919Z,99.90
2023-04-20T18:42:18.211Z,99.90
2023-04-20T18:43:54.404Z,99.90
2023-04-20T18:45:27.487Z,99.90
2023-04-20T18:47:00.800Z,99.90
2023-04-20T18:48:33.710Z,99.90
2023-04-20T18:50:09.233Z,99.90
2023-04-20T18:51:42.237Z,99.90
2023-04-20T18:53:15.288Z,99.90
2023-04-20T18:54:48.663Z,99.90
2023-04-20T18:56:21.445Z,99.90
2023-04-20T18:57:54.423Z,99.90
2023-04-20T18:59:27.384Z,99.90
2023-04-20T19:01:01.902Z,99.90
2023-04-20T19:02:35.231Z,99.90
2023-04-20T19:04:08.513Z,99.90
2023-04-20T19:05:43.357Z,99.90
2023-04-20T19:07:16.339Z,99.90
2023-04-20T19:08:49.256Z,99.90
2023-04-20T19:10:22.180Z,99.90
2023-04-20T19:11:55.125Z,99.90
2023-04-20T19:13:27.069Z,99.90
2023-04-20T19:15:00.328Z,99.90
2023-04-20T19:16:34.715Z,99.90
2023-04-20T19:18:07.885Z,99.90
2023-04-20T19:19:41.109Z,99.90
2023-04-20T19:21:15.481Z,99.90
2023-04-20T19:22:48.492Z,99.90
2023-04-20T19:24:21.532Z,99.90
2023-04-20T19:25:55.072Z,99.90
2023-04-20T19:27:28.194Z,99.90
2023-04-20T19:29:01.152Z,99.90
2023-04-20T19:30:34.213Z,99.90
2023-04-20T19:32:07.717Z,99.90
2023-04-20T19:33:41.348Z,99.90
2023-04-20T19:35:14.339Z,99.90
2023-04-20T19:36:48.725Z,99.90
2023-04-20T19:38:24.258Z,99.90
2023-04-20T19:39:57.382Z,99.90
2023-04-20T19:41:30.992Z,99.90
2023-04-20T19:43:03.989Z,99.90
2023-04-20T19:44:36.993Z,99.90
2023-04-20T19:46:10.116Z,99.90
2023-04-20T19:47:43.250Z,99.90
2023-04-20T19:49:16.610Z,99.90
2023-04-20T19:50:49.647Z,99.90
2023-04-20T19:52:23.951Z,99.90
2023-04-20T19:53:57.422Z,99.90
2023-04-20T19:55:30.464Z,99.90
2023-04-20T19:57:03.472Z,99.90
2023-04-20T19:58:36.476Z,99.90
2023-04-20T20:00:10.198Z,99.90
2023-04-20T20:01:43.318Z,99.90
2023-04-20T20:03:16.604Z,99.90
2023-04-20T20:04:49.622Z,99.90
2023-04-20T20:06:23.622Z,99.90
2023-04-20T20:07:57.903Z,99.90
2023-04-20T20:09:30.950Z,99.90